createdAt,value
2019-05-12T00:00:20.136Z,97486.18
2019-05-12T00:02:48.711Z,97490.56
2019-05-12T00:05:18.534Z,97485.34
2019-05-12T00:07:48.773Z,97486.18
2019-05-12T00:10:17.909Z,97480.23
2019-05-12T00:12:48.273Z,97483.70
2019-05-12T00:15:19.380Z,97483.89
2019-05-12T00:17:48.160Z,97484.91
2019-05-12T00:20:18.089Z,97478.23
2019-05-12T00:22:48.809Z,97490.64
2019-05-12T00:25:18.127Z,97496.08
2019-05-12T00:27:48.707Z,97498.47
2019-05-12T00:30:33.636Z,97494.73
2019-05-12T00:33:03.033Z,97503.66
2019-05-12T00:35:31.514Z,97517.29
2019-05-12T00:38:00.003Z,97510.22
2019-05-12T00:40:28.396Z,97519.79
2019-05-12T00:42:57.735Z,97523.33
2019-05-12T00:45:28.927Z,97526.03
2019-05-12T00:47:58.194Z,97528.70
2019-05-12T00:50:28.995Z,97527.50
2019-05-12T00:52:57.917Z,97539.06
2019-05-12T00:55:28.769Z,97539.47
2019-05-12T00:57:58.210Z,97543.02
2019-05-12T01:00:29.278Z,97545.26
2019-05-12T01:02:58.137Z,97555.70
2019-05-12T01:05:29.159Z,97546.45
2019-05-12T01:07:58.366Z,97558.30
2019-05-12T01:10:28.601Z,97567.93
2019-05-12T01:12:58.207Z,97568.00
2019-05-12T01:15:28.623Z,97570.70
2019-05-12T01:17:58.622Z,97570.84
2019-05-12T01:20:28.402Z,97567.96
2019-05-12T01:22:57.918Z,97574.55
2019-05-12T01:25:28.784Z,97573.41
2019-05-12T01:27:58.924Z,97590.64
2019-05-12T01:30:28.416Z,97588.59
2019-05-12T01:32:58.068Z,97596.02
2019-05-12T01:35:28.111Z,97596.92
2019-05-12T01:37:58.728Z,97595.28
2019-05-12T01:40:28.531Z,97598.66
2019-05-12T01:42:58.204Z,97598.24
2019-05-12T01:45:28.745Z,97608.16
2019-05-12T01:47:58.986Z,97606.88
2019-05-12T01:50:28.248Z,97610.80
2019-05-12T01:52:59.934Z,97616.76
2019-05-12T01:55:28.454Z,97617.66
2019-05-12T01:57:57.700Z,97623.33
2019-05-12T02:00:28.358Z,97640.07
2019-05-12T02:02:58.433Z,97625.48
2019-05-12T02:05:27.973Z,97636.77
2019-05-12T02:07:58.819Z,97645.42
2019-05-12T02:10:28.701Z,97656.11
2019-05-12T02:12:59.400Z,97655.27
2019-05-12T02:15:27.999Z,97658.30
2019-05-12T02:17:58.610Z,97667.34
2019-05-12T02:20:28.743Z,97668.66
2019-05-12T02:22:58.327Z,97679.83
2019-05-12T02:25:28.772Z,97684.53
2019-05-12T02:27:58.392Z,97683.17
2019-05-12T02:30:30.406Z,97693.60
2019-05-12T02:32:59.878Z,97694.47
2019-05-12T02:35:27.251Z,97704.80
2019-05-12T02:37:55.639Z,97708.16
2019-05-12T02:40:25.149Z,97709.89
2019-05-12T02:42:55.062Z,97721.48
2019-05-12T02:45:25.402Z,97724.63
2019-05-12T02:47:54.409Z,97732.34
2019-05-12T02:50:28.860Z,97731.12
2019-05-12T02:52:57.237Z,97732.86
2019-05-12T02:55:25.912Z,97725.48
2019-05-12T02:57:55.618Z,97732.44
2019-05-12T03:00:24.322Z,97732.55
2019-05-12T03:02:54.794Z,97738.63
2019-05-12T03:05:24.809Z,97741.65
2019-05-12T03:07:56.070Z,97749.38
2019-05-12T03:10:25.239Z,97760.51
2019-05-12T03:12:54.962Z,97770.44
2019-05-12T03:15:25.078Z,97772.59
2019-05-12T03:17:54.590Z,97781.60
2019-05-12T03:20:24.241Z,97785.72
2019-05-12T03:22:55.400Z,97789.22
2019-05-12T03:25:28.931Z,97801.16
2019-05-12T03:27:54.545Z,97817.64
2019-05-12T03:30:28.037Z,97814.75
2019-05-12T03:32:57.997Z,97819.92
2019-05-12T03:35:32.205Z,97804.48
2019-05-12T03:37:54.792Z,97810.11
2019-05-12T03:40:24.934Z,97814.33
2019-05-12T03:42:54.878Z,97818.27
2019-05-12T03:45:25.141Z,97826.94
2019-05-12T03:47:54.794Z,97830.80
2019-05-12T03:50:24.475Z,97838.64
2019-05-12T03:52:56.443Z,97843.39
2019-05-12T03:55:31.665Z,97849.92
2019-05-12T03:57:55.119Z,97861.98
2019-05-12T04:00:24.687Z,97867.58
2019-05-12T04:02:55.601Z,97878.30
2019-05-12T04:05:24.309Z,97880.92
2019-05-12T04:07:54.658Z,97887.43
2019-05-12T04:10:24.743Z,97885.36
2019-05-12T04:12:54.881Z,97828.06
2019-05-12T04:15:25.544Z,97897.30
2019-05-12T04:17:54.305Z,97896.95
2019-05-12T04:20:25.486Z,97907.69
2019-05-12T04:22:54.737Z,97906.88
2019-05-12T04:25:24.966Z,97918.04
2019-05-12T04:27:54.237Z,97914.65
2019-05-12T04:30:24.964Z,97924.94
2019-05-12T04:32:55.270Z,97927.90
2019-05-12T04:35:25.184Z,97928.36
2019-05-12T04:37:55.377Z,97938.63
2019-05-12T04:40:24.803Z,97935.63
2019-05-12T04:42:54.815Z,97941.67
2019-05-12T04:45:25.496Z,97950.22
2019-05-12T04:47:55.210Z,97954.53
2019-05-12T04:50:24.692Z,97967.78
2019-05-12T04:52:54.862Z,97970.33
2019-05-12T04:55:25.624Z,97901.59
2019-05-12T04:57:54.547Z,97981.97
2019-05-12T05:00:25.740Z,97984.12
2019-05-12T05:02:54.473Z,97988.45
2019-05-12T05:05:24.822Z,97991.44
2019-05-12T05:07:54.850Z,97997.47
2019-05-12T05:10:24.928Z,98003.91
2019-05-12T05:12:54.353Z,98010.36
2019-05-12T05:15:24.955Z,98014.27
2019-05-12T05:17:54.560Z,98024.57
2019-05-12T05:20:23.985Z,98022.00
2019-05-12T05:22:54.201Z,98027.57
2019-05-12T05:25:23.680Z,98043.45
2019-05-12T05:27:53.282Z,97969.83
2019-05-12T05:30:24.204Z,98056.34
2019-05-12T05:32:53.582Z,98052.09
2019-05-12T05:35:23.874Z,98062.38
2019-05-12T05:37:53.871Z,98060.66
2019-05-12T05:40:26.019Z,98067.52
2019-05-12T05:42:54.164Z,98070.94
2019-05-12T05:45:25.937Z,98086.34
2019-05-12T05:47:54.457Z,98080.34
2019-05-12T05:50:25.199Z,98091.84
2019-05-12T05:52:54.272Z,98096.60
2019-05-12T05:55:23.325Z,98097.90
2019-05-12T05:57:53.512Z,98105.63
2019-05-12T06:00:26.015Z,98100.05
2019-05-12T06:02:54.457Z,98112.03
2019-05-12T06:05:26.282Z,98108.19
2019-05-12T06:07:53.581Z,98115.48
2019-05-12T06:10:34.756Z,98117.63
2019-05-12T06:12:54.138Z,98127.00
2019-05-12T06:15:23.544Z,98135.13
2019-05-12T06:17:53.830Z,98131.75
2019-05-12T06:20:23.814Z,98142.44
2019-05-12T06:22:54.602Z,97937.97
2019-05-12T06:25:26.442Z,98141.53
2019-05-12T06:28:00.055Z,98147.06
2019-05-12T06:30:25.629Z,98159.88
2019-05-12T06:32:54.702Z,98162.05
2019-05-12T06:35:24.095Z,98151.80
2019-05-12T06:38:00.110Z,98171.84
2019-05-12T06:40:24.368Z,98177.83
2019-05-12T06:42:56.975Z,98176.06
2019-05-12T06:45:23.552Z,98179.06
2019-05-12T06:47:54.105Z,98188.86
2019-05-12T06:50:23.723Z,98195.69
2019-05-12T06:52:53.115Z,98191.36
2019-05-12T06:55:23.696Z,98198.20
2019-05-12T06:57:51.568Z,98196.00
2019-05-12T07:00:22.219Z,98204.16
2019-05-12T07:02:54.749Z,98207.98
2019-05-12T07:05:20.320Z,98210.09
2019-05-12T07:07:48.704Z,98212.64
2019-05-12T07:10:35.474Z,98216.50
2019-05-12T07:12:58.896Z,98227.59
2019-05-12T07:15:17.717Z,98224.57
2019-05-12T07:17:49.807Z,98230.52
2019-05-12T07:20:17.829Z,98233.96
2019-05-12T07:22:48.814Z,98226.69
2019-05-12T07:25:17.219Z,98234.82
2019-05-12T07:27:53.645Z,98233.93
2019-05-12T07:30:18.744Z,98245.08
2019-05-12T07:32:51.169Z,98245.47
2019-05-12T07:35:17.241Z,98255.74
2019-05-12T07:37:46.763Z,98250.56
2019-05-12T07:40:19.013Z,98257.16
2019-05-12T07:42:45.903Z,98256.41
2019-05-12T07:45:20.616Z,98262.98
2019-05-12T07:47:45.022Z,98257.77
2019-05-12T07:50:16.186Z,98268.97
2019-05-12T07:52:44.245Z,98263.31
2019-05-12T07:55:14.721Z,98265.86
2019-05-12T07:57:52.839Z,98270.45
2019-05-12T08:00:21.313Z,98273.48
2019-05-12T08:02:44.339Z,98278.63
2019-05-12T08:05:19.391Z,98271.73
2019-05-12T08:07:44.712Z,98203.53
2019-05-12T08:10:19.658Z,98288.32
2019-05-12T08:12:44.583Z,98291.70
2019-05-12T08:15:14.206Z,98285.34
2019-05-12T08:17:44.114Z,98293.87
2019-05-12T08:20:13.476Z,98301.94
2019-05-12T08:22:43.786Z,98302.78
2019-05-12T08:25:13.407Z,98303.52
2019-05-12T08:27:45.237Z,98297.05
2019-05-12T08:30:13.855Z,98302.17
2019-05-12T08:32:44.343Z,98300.85
2019-05-12T08:35:13.960Z,98301.61
2019-05-12T08:37:44.107Z,98308.80
2019-05-12T08:40:15.379Z,98306.94
2019-05-12T08:42:43.632Z,98306.80
2019-05-12T08:45:15.269Z,98318.69
2019-05-12T08:47:44.068Z,98317.83
2019-05-12T08:50:13.636Z,98313.41
2019-05-12T08:52:44.228Z,98318.88
2019-05-12T08:55:16.385Z,98324.81
2019-05-12T08:57:48.966Z,98319.98
2019-05-12T09:00:13.446Z,98323.33
2019-05-12T09:02:46.091Z,98336.48
2019-05-12T09:05:14.278Z,98336.40
2019-05-12T09:07:43.543Z,98338.58
2019-05-12T09:10:14.159Z,98347.05
2019-05-12T09:12:44.181Z,98351.69
2019-05-12T09:15:13.596Z,98353.32
2019-05-12T09:17:49.085Z,98362.71
2019-05-12T09:20:13.728Z,98364.38
2019-05-12T09:22:43.268Z,98358.39
2019-05-12T09:25:14.119Z,98366.04
2019-05-12T09:27:45.664Z,98368.88
2019-05-12T09:30:14.171Z,98380.70
2019-05-12T09:32:48.640Z,98378.78
2019-05-12T09:35:14.421Z,98371.33
2019-05-12T09:37:44.118Z,98382.16
2019-05-12T09:40:14.923Z,98389.06
2019-05-12T09:42:44.058Z,98395.17
2019-05-12T09:45:13.833Z,98390.16
2019-05-12T09:47:43.607Z,98413.82
2019-05-12T09:50:18.339Z,98396.12
2019-05-12T09:52:44.099Z,98394.30
2019-05-12T09:55:14.817Z,98397.41
2019-05-12T09:57:45.039Z,98396.79
2019-05-12T10:00:13.872Z,98405.25
2019-05-12T10:02:43.595Z,98413.88
2019-05-12T10:05:14.496Z,98412.28
2019-05-12T10:07:44.553Z,98413.48
2019-05-12T10:10:14.223Z,98419.44
2019-05-12T10:12:46.315Z,98418.94
2019-05-12T10:15:18.584Z,98425.34
2019-05-12T10:17:44.150Z,98433.67
2019-05-12T10:20:13.721Z,98427.22
2019-05-12T10:22:43.773Z,98428.45
2019-05-12T10:25:14.380Z,98424.92
2019-05-12T10:27:44.272Z,98429.47
2019-05-12T10:30:17.441Z,98445.34
2019-05-12T10:32:43.837Z,98436.77
2019-05-12T10:35:20.827Z,98447.92
2019-05-12T10:37:46.856Z,98445.31
2019-05-12T10:40:14.064Z,98438.85
2019-05-12T10:42:46.056Z,98444.73
2019-05-12T10:45:16.936Z,98453.86
2019-05-12T10:47:43.080Z,98441.78
2019-05-12T10:50:11.597Z,98452.17
2019-05-12T10:52:39.985Z,98446.02
2019-05-12T10:55:09.711Z,98453.59
2019-05-12T10:57:38.162Z,98461.75
2019-05-12T11:00:08.954Z,98465.17
2019-05-12T11:02:37.334Z,98460.32
2019-05-12T11:05:12.411Z,98464.17
2019-05-12T11:07:37.162Z,98461.95
2019-05-12T11:10:15.634Z,98477.18
2019-05-12T11:12:38.658Z,98471.08
2019-05-12T11:15:08.985Z,98471.81
2019-05-12T11:17:54.263Z,98467.55
2019-05-12T11:20:25.149Z,98461.36
2019-05-12T11:22:54.243Z,98466.42
2019-05-12T11:25:24.697Z,98474.43
2019-05-12T11:27:54.921Z,98466.16
2019-05-12T11:30:24.023Z,98478.59
2019-05-12T11:32:54.110Z,98471.67
2019-05-12T11:35:23.693Z,98474.26
2019-05-12T11:37:53.890Z,98465.17
2019-05-12T11:40:23.889Z,98474.47
2019-05-12T11:42:59.032Z,98464.33
2019-05-12T11:45:24.159Z,98467.86
2019-05-12T11:47:59.115Z,98473.33
2019-05-12T11:50:23.421Z,98483.01
2019-05-12T11:52:52.343Z,98487.41
2019-05-12T11:55:21.368Z,98488.31
2019-05-12T11:57:51.046Z,98485.98
2019-05-12T12:00:21.464Z,98501.45
2019-05-12T12:02:49.826Z,98503.66
2019-05-12T12:05:18.317Z,98502.42
2019-05-12T12:07:51.356Z,98502.78
2019-05-12T12:10:17.049Z,98503.98
2019-05-12T12:12:49.336Z,98511.42
2019-05-12T12:15:20.375Z,98529.19
2019-05-12T12:17:46.499Z,98483.13
2019-05-12T12:20:22.539Z,98519.77
2019-05-12T12:22:48.987Z,98526.11
2019-05-12T12:25:25.020Z,98527.83
2019-05-12T12:27:53.842Z,98531.66
2019-05-12T12:30:23.613Z,98538.34
2019-05-12T12:32:57.209Z,98547.84
2019-05-12T12:35:23.411Z,98551.91
2019-05-12T12:37:53.946Z,98551.91
2019-05-12T12:40:21.933Z,98551.59
2019-05-12T12:42:50.329Z,98555.14
2019-05-12T12:45:40.361Z,98555.48
2019-05-12T12:48:07.319Z,98558.55
2019-05-12T12:50:35.698Z,98563.64
2019-05-12T12:53:04.159Z,98563.64
2019-05-12T12:55:32.544Z,98558.38
2019-05-12T12:58:02.823Z,98563.02
2019-05-12T13:00:46.127Z,98568.55
2019-05-12T13:03:03.727Z,98575.81
2019-05-12T13:05:34.545Z,98571.14
2019-05-12T13:08:04.249Z,98575.42
2019-05-12T13:10:33.655Z,98578.34
2019-05-12T13:13:04.119Z,98575.61
2019-05-12T13:15:34.024Z,98571.63
2019-05-12T13:18:02.637Z,98582.26
2019-05-12T13:20:30.993Z,98587.83
2019-05-12T13:22:59.381Z,98592.59
2019-05-12T13:25:27.772Z,98592.41
2019-05-12T13:27:56.161Z,98588.16
2019-05-12T13:30:24.575Z,98591.14
2019-05-12T13:32:52.954Z,98599.30
2019-05-12T13:35:23.770Z,98605.38
2019-05-12T13:37:56.444Z,98601.44
2019-05-12T13:40:23.365Z,98601.33
2019-05-12T13:42:54.318Z,98602.67
2019-05-12T13:45:24.110Z,98600.95
2019-05-12T13:47:53.417Z,98602.70
2019-05-12T13:50:26.202Z,98602.67
2019-05-12T13:52:54.055Z,98608.25
2019-05-12T13:55:23.962Z,98601.89
2019-05-12T13:57:57.441Z,98607.06
2019-05-12T14:00:22.415Z,98607.13
2019-05-12T14:02:57.209Z,98595.95
2019-05-12T14:05:20.917Z,98608.95
2019-05-12T14:07:50.017Z,98603.78
2019-05-12T14:10:19.460Z,98606.73
2019-05-12T14:12:47.851Z,98616.64
2019-05-12T14:15:17.814Z,98603.21
2019-05-12T14:17:46.264Z,98604.42
2019-05-12T14:20:19.949Z,98606.02
2019-05-12T14:22:45.058Z,98605.20
2019-05-12T14:25:15.287Z,98598.19
2019-05-12T14:27:44.623Z,98605.15
2019-05-12T14:30:14.439Z,98599.00
2019-05-12T14:32:43.990Z,98602.41
2019-05-12T14:35:12.658Z,98606.77
2019-05-12T14:37:45.948Z,98603.77
2019-05-12T14:40:13.418Z,98605.42
2019-05-12T14:42:43.996Z,98609.24
2019-05-12T14:45:13.726Z,98608.38
2019-05-12T14:47:43.762Z,98610.02
2019-05-12T14:50:14.159Z,98609.16
2019-05-12T14:52:44.047Z,98623.31
2019-05-12T14:55:14.490Z,98621.56
2019-05-12T14:57:42.874Z,98621.05
2019-05-12T15:00:19.193Z,98622.28
2019-05-12T15:02:43.863Z,98619.30
2019-05-12T15:05:14.639Z,98624.00
2019-05-12T15:07:51.304Z,98618.45
2019-05-12T15:10:14.418Z,98622.28
2019-05-12T15:12:44.173Z,98623.52
2019-05-12T15:15:15.666Z,98625.11
2019-05-12T15:17:44.432Z,98635.77
2019-05-12T15:20:13.910Z,98633.56
2019-05-12T15:22:51.403Z,98638.78
2019-05-12T15:25:14.567Z,98637.94
2019-05-12T15:27:45.968Z,98635.67
2019-05-12T15:30:22.831Z,98636.16
2019-05-12T15:32:45.201Z,98634.38
2019-05-12T15:35:14.048Z,98636.03
2019-05-12T15:37:43.520Z,98635.16
2019-05-12T15:40:14.435Z,98639.37
2019-05-12T15:42:45.313Z,98633.31
2019-05-12T15:45:16.387Z,98633.24
2019-05-12T15:47:44.697Z,98645.75
2019-05-12T15:50:14.749Z,98646.72
2019-05-12T15:52:45.725Z,98649.28
2019-05-12T15:55:17.773Z,98648.28
2019-05-12T15:57:44.476Z,98646.95
2019-05-12T16:00:16.963Z,98653.36
2019-05-12T16:02:45.180Z,98650.73
2019-05-12T16:05:14.748Z,98648.98
2019-05-12T16:07:44.220Z,98651.55
2019-05-12T16:10:14.470Z,98656.28
2019-05-12T16:12:43.637Z,98660.59
2019-05-12T16:15:19.423Z,98665.74
2019-05-12T16:17:46.139Z,98672.19
2019-05-12T16:20:14.662Z,98673.55
2019-05-12T16:22:45.250Z,98664.45
2019-05-12T16:25:15.361Z,98673.09
2019-05-12T16:27:44.591Z,98674.40
2019-05-12T16:30:14.107Z,98676.08
2019-05-12T16:32:47.247Z,98676.47
2019-05-12T16:35:14.523Z,98673.49
2019-05-12T16:37:44.260Z,98678.64
2019-05-12T16:40:13.902Z,98678.19
2019-05-12T16:42:48.373Z,98688.50
2019-05-12T16:45:14.377Z,98689.34
2019-05-12T16:47:44.724Z,98696.21
2019-05-12T16:50:16.691Z,98702.59
2019-05-12T16:52:45.363Z,98711.31
2019-05-12T16:55:14.307Z,98706.13
2019-05-12T16:57:50.972Z,98704.90
2019-05-12T17:00:14.003Z,98707.07
2019-05-12T17:02:52.178Z,98709.66
2019-05-12T17:05:18.503Z,98716.14
2019-05-12T17:07:44.234Z,98717.02
2019-05-12T17:10:16.434Z,98720.97
2019-05-12T17:12:43.728Z,98720.23
2019-05-12T17:15:14.632Z,98715.11
2019-05-12T17:17:44.736Z,98728.58
2019-05-12T17:20:13.796Z,98726.89
2019-05-12T17:22:53.706Z,98731.27
2019-05-12T17:25:15.367Z,98734.73
2019-05-12T17:27:44.885Z,98724.84
2019-05-12T17:30:13.815Z,98729.25
2019-05-12T17:32:54.883Z,98731.88
2019-05-12T17:35:14.559Z,98733.59
2019-05-12T17:37:46.449Z,98737.92
2019-05-12T17:40:19.916Z,98737.53
2019-05-12T17:42:45.233Z,98741.42
2019-05-12T17:45:20.272Z,98747.48
2019-05-12T17:47:44.645Z,98748.78
2019-05-12T17:50:13.788Z,98748.78
2019-05-12T17:52:45.094Z,98753.54
2019-05-12T17:55:15.011Z,98755.80
2019-05-12T17:57:44.044Z,98761.43
2019-05-12T18:00:14.799Z,98769.62
2019-05-12T18:02:43.920Z,98768.81
2019-05-12T18:05:15.508Z,98770.22
2019-05-12T18:07:44.549Z,98774.59
2019-05-12T18:10:13.845Z,98772.87
2019-05-12T18:12:45.272Z,98776.78
2019-05-12T18:15:15.057Z,98790.64
2019-05-12T18:17:45.200Z,98793.77
2019-05-12T18:20:14.714Z,98785.20
2019-05-12T18:22:45.041Z,98799.92
2019-05-12T18:25:14.636Z,98794.77
2019-05-12T18:27:50.192Z,98802.54
2019-05-12T18:30:16.599Z,98805.18
2019-05-12T18:32:43.787Z,98809.52
2019-05-12T18:35:13.768Z,98812.13
2019-05-12T18:37:42.282Z,98815.64
2019-05-12T18:40:14.468Z,98819.10
2019-05-12T18:42:43.195Z,98815.69
2019-05-12T18:45:16.896Z,98823.46
2019-05-12T18:47:44.069Z,98824.33
2019-05-12T18:50:14.111Z,98834.74
2019-05-12T18:52:46.033Z,98834.37
2019-05-12T18:55:16.662Z,98853.37
2019-05-12T18:57:49.761Z,98853.81
2019-05-12T19:00:18.393Z,98854.26
2019-05-12T19:02:47.047Z,98859.05
2019-05-12T19:05:21.758Z,98869.38
2019-05-12T19:07:46.584Z,98869.80
2019-05-12T19:10:18.670Z,98871.16
2019-05-12T19:12:51.738Z,98849.47
2019-05-12T19:15:21.844Z,98879.07
2019-05-12T19:17:47.313Z,98885.98
2019-05-12T19:20:15.935Z,98887.28
2019-05-12T19:22:56.130Z,98892.10
2019-05-12T19:25:15.281Z,98892.14
2019-05-12T19:27:45.990Z,98893.42
2019-05-12T19:30:19.458Z,98899.91
2019-05-12T19:32:45.100Z,98899.93
2019-05-12T19:35:25.564Z,98897.36
2019-05-12T19:37:54.112Z,98901.25
2019-05-12T19:40:22.509Z,98909.45
2019-05-12T19:42:53.775Z,98906.03
2019-05-12T19:45:21.885Z,98903.48
2019-05-12T19:47:53.572Z,98905.25
2019-05-12T19:50:22.031Z,98903.56
2019-05-12T19:52:50.546Z,98908.34
2019-05-12T19:55:26.428Z,98906.16
2019-05-12T19:57:54.866Z,98907.05
2019-05-12T20:00:23.681Z,98904.03
2019-05-12T20:02:53.767Z,98905.37
2019-05-12T20:05:23.738Z,98907.12
2019-05-12T20:07:53.730Z,98901.99
2019-05-12T20:10:24.365Z,98905.45
2019-05-12T20:12:54.839Z,98910.27
2019-05-12T20:15:24.117Z,98917.59
2019-05-12T20:17:53.578Z,98915.06
2019-05-12T20:20:26.689Z,98913.34
2019-05-12T20:22:54.179Z,98916.41
2019-05-12T20:25:23.636Z,98916.41
2019-05-12T20:28:01.534Z,98919.41
2019-05-12T20:30:24.062Z,98922.01
2019-05-12T20:32:54.012Z,98924.63
2019-05-12T20:35:22.626Z,98922.05
2019-05-12T20:37:54.229Z,98924.63
2019-05-12T20:40:23.734Z,98933.29
2019-05-12T20:43:07.416Z,98931.58
2019-05-12T20:45:25.332Z,98932.89
2019-05-12T20:47:53.237Z,98930.34
2019-05-12T20:50:25.913Z,98926.02
2019-05-12T20:52:58.512Z,98923.91
2019-05-12T20:55:23.429Z,98927.78
2019-05-12T20:57:54.452Z,98919.59
2019-05-12T21:00:28.902Z,98924.77
2019-05-12T21:02:57.295Z,98927.37
2019-05-12T21:05:25.680Z,98930.44
2019-05-12T21:07:55.764Z,98929.61
2019-05-12T21:10:30.839Z,98934.37
2019-05-12T21:12:59.234Z,98940.42
2019-05-12T21:15:40.632Z,98938.77
2019-05-12T21:18:10.593Z,98936.17
2019-05-12T21:20:40.917Z,98944.78
2019-05-12T21:23:09.297Z,98945.64
2019-05-12T21:25:37.878Z,98946.55
2019-05-12T21:28:20.498Z,98944.84
2019-05-12T21:30:55.760Z,98949.14
2019-05-12T21:33:25.233Z,98944.84
2019-05-12T21:36:00.479Z,98948.25
2019-05-12T21:38:29.680Z,98943.55
2019-05-12T21:41:02.073Z,98917.47
2019-05-12T21:43:28.395Z,98953.52
2019-05-12T21:46:01.159Z,98944.88
2019-05-12T21:48:29.321Z,98949.66
2019-05-12T21:50:57.009Z,98950.08
2019-05-12T21:53:25.400Z,98956.17
2019-05-12T21:55:57.589Z,98928.74
2019-05-12T21:58:23.878Z,98953.19
2019-05-12T22:01:00.061Z,98963.98
2019-05-12T22:03:26.110Z,98962.27
2019-05-12T22:05:55.658Z,98959.67
2019-05-12T22:08:25.815Z,98962.72
2019-05-12T22:10:54.600Z,98971.77
2019-05-12T22:13:22.981Z,98964.47
2019-05-12T22:15:57.324Z,98968.38
2019-05-12T22:18:23.951Z,98964.06
2019-05-12T22:21:01.255Z,98964.09
2019-05-12T22:23:24.563Z,98969.27
2019-05-12T22:25:55.648Z,98963.27
2019-05-12T22:28:23.983Z,98968.44
2019-05-12T22:30:54.127Z,98969.30
2019-05-12T22:33:24.170Z,98967.17
2019-05-12T22:36:02.907Z,98966.34
2019-05-12T22:38:24.710Z,98972.82
2019-05-12T22:40:55.994Z,98967.22
2019-05-12T22:43:23.910Z,98969.37
2019-05-12T22:45:54.465Z,98965.50
2019-05-12T22:48:22.417Z,98967.67
2019-05-12T22:50:50.802Z,98968.98
2019-05-12T22:53:19.560Z,98965.11
2019-05-12T22:55:49.320Z,98970.30
2019-05-12T22:58:22.356Z,98975.47
2019-05-12T23:00:51.211Z,98979.80
2019-05-12T23:03:17.989Z,98977.21
2019-05-12T23:05:50.694Z,98973.34
2019-05-12T23:08:16.488Z,98970.75
2019-05-12T23:10:51.523Z,98969.48
2019-05-12T23:13:14.980Z,98965.63
2019-05-12T23:15:47.568Z,98971.20
2019-05-12T23:18:14.000Z,98968.23
2019-05-12T23:20:43.861Z,98971.23
2019-05-12T23:23:15.391Z,98971.67
2019-05-12T23:25:44.110Z,98971.23
2019-05-12T23:28:12.516Z,98966.98
2019-05-12T23:30:43.712Z,98973.00
2019-05-12T23:33:16.873Z,98973.44
2019-05-12T23:35:45.325Z,98970.85
2019-05-12T23:38:18.747Z,98971.25
2019-05-12T23:40:43.802Z,98971.27
2019-05-12T23:43:14.356Z,98975.14
2019-05-12T23:45:44.318Z,98967.00
2019-05-12T23:48:14.502Z,98971.73
2019-05-12T23:50:43.791Z,98965.27
2019-05-12T23:53:14.082Z,98965.72
2019-05-12T23:55:43.734Z,98961.84
2019-05-12T23:58:14.258Z,98963.58
